ESSV

Visby Airport

Visby, Sweden
METAR ESSV 240320Z AUTO 01013KT 9999 FEW070/// 10/03 Q1005
Observed Flight Rules
Sep-24 @ 03:20 UTC (27 minutes ago) Visual Flight Rules
Wind Visibility Clouds
10° at 13 knots 10,000+ meters
  • Few at 7,000' AGL
Temperatures Readings
Current 10°C / 50°F
Dewpoint 3°C / 37°F
Humidity 62%
Altimeter 29.68" Hg
Pressure 1005 hPa
Elevation 47
METAR ESSV 240320Z AUTO 01013KT 9999 FEW070/// 10/03 Q1005
Observed Flight Rules
Sep-24 @ 03:20 UTC
(27 minutes ago)
VFR
Wind Visibility
10° at 13 knots 10,000+ meters
Clouds
  • Few at 7,000' AGL
Temperature Dewpoint
10°C / 50°F 3°C / 37°F
Humidity Altimeter Pressure
62% 29.68" Hg 1005 hPa